Time;durP1;ratioP1;P1;durP2;ratioP2;P2;SDS_P1;SDS_P2;PMS_P1;PMS_P2;Temp;Humidity;BMP_temperature;BMP_pressure;BME280_temperature;BME280_humidity;BME280_pressure;Samples;Min_cycle;Max_cycle;Signal;HPM_P1;HPM_P2
2022/09/14 00:02:52;;;;;;;4.05;3.65;;;19.90;72.50;;;;;;6127510;23;20192;-82
2022/09/14 00:12:11;;;;;;;4.10;3.70;;;19.80;72.40;;;;;;6209375;23;20201;-82
2022/09/14 00:15:33;;;;;;;3.92;3.53;;;19.90;72.70;;;;;;6186746;23;20151;-83
2022/09/14 00:19:07;;;;;;;3.67;3.38;;;19.90;72.70;;;;;;6151608;23;20164;-83
2022/09/14 00:21:47;;;;;;;4.32;3.92;;;19.90;72.50;;;;;;6127890;23;20167;-84
2022/09/14 00:28:13;;;;;;;4.07;3.67;;;19.90;72.50;;;;;;6151770;23;20187;-83
2022/09/14 00:30:50;;;;;;;4.15;3.75;;;19.80;72.50;;;;;;6098886;23;20223;-83
2022/09/14 00:33:46;;;;;;;3.50;3.20;;;19.90;72.30;;;;;;6093372;23;20177;-83
2022/09/14 00:36:38;;;;;;;4.10;3.70;;;19.90;72.30;;;;;;6046043;23;20161;-84
2022/09/14 00:39:13;;;;;;;3.85;3.55;;;19.80;72.30;;;;;;6048333;23;20157;-84
2022/09/14 00:45:28;;;;;;;3.97;3.63;;;19.80;72.20;;;;;;6036566;23;20277;-84
2022/09/14 00:51:39;;;;;;;3.67;3.38;;;19.80;72.30;;;;;;6008685;24;20159;-81
2022/09/14 00:55:06;;;;;;;;;;;;;;;;;;;;;
2022/09/14 00:57:51;;;;;;;4.40;4.00;;;19.90;72.40;;;;;;5963711;24;20162;-83
2022/09/14 01:00:53;;;;;;;4.30;3.90;;;19.80;72.30;;;;;;5958204;24;20147;-81
2022/09/14 01:03:56;;;;;;;3.90;3.50;;;19.80;72.20;;;;;;5930042;24;20164;-82
2022/09/14 01:06:37;;;;;;;4.00;3.60;;;19.80;72.30;;;;;;5933457;24;20168;-83
2022/09/14 01:12:39;;;;;;;3.85;3.55;;;19.80;72.40;;;;;;5952455;24;20230;-84
2022/09/14 01:15:31;;;;;;;4.30;3.90;;;19.80;72.30;;;;;;5974288;23;20163;-83
2022/09/14 01:18:48;;;;;;;3.60;3.30;;;19.80;72.50;;;;;;5940958;23;20159;-83
2022/09/14 01:22:07;;;;;;;3.80;3.50;;;19.80;72.40;;;;;;6039544;23;20170;-84
2022/09/14 01:25:26;;;;;;;3.70;3.40;;;19.80;72.40;;;;;;6010932;23;20244;-83
2022/09/14 01:28:36;;;;;;;4.22;3.83;;;19.80;72.30;;;;;;6064534;23;20158;-83
2022/09/14 01:35:15;;;;;;;4.72;3.45;;;19.80;72.50;;;;;;6080527;23;20184;-83
2022/09/14 01:38:18;;;;;;;3.70;3.40;;;19.80;72.50;;;;;;6011661;23;20159;-83
2022/09/14 01:50:58;;;;;;;4.65;3.78;;;19.80;72.50;;;;;;6065524;23;20141;-82
2022/09/14 01:53:53;;;;;;;4.20;3.80;;;19.80;72.50;;;;;;5994349;23;20173;-82
2022/09/14 01:56:54;;;;;;;4.60;4.07;;;19.80;72.50;;;;;;5973140;23;20169;-82
2022/09/14 02:00:02;;;;;;;3.78;3.45;;;19.80;73.40;;;;;;6030614;23;20168;-83
2022/09/14 02:06:22;;;;;;;3.88;3.58;;;19.80;72.70;;;;;;6036695;23;20205;-83
2022/09/14 02:09:05;;;;;;;3.97;3.58;;;19.80;72.60;;;;;;6037289;23;20153;-82
2022/09/14 02:12:04;;;;;;;4.13;3.63;;;19.80;72.50;;;;;;6066357;23;20187;-81
2022/09/14 04:05:06;;;;;;;3.75;3.40;;;19.70;72.70;;;;;;6210903;23;20221;-83
2022/09/14 04:08:21;;;;;;;3.95;3.55;;;19.80;72.80;;;;;;6078539;23;20164;-83
2022/09/14 04:11:18;;;;;;;3.70;3.40;;;19.80;72.80;;;;;;6102946;23;20156;-83
2022/09/14 04:14:27;;;;;;;3.97;3.67;;;19.80;72.80;;;;;;6103895;23;20166;-83
2022/09/14 04:17:24;;;;;;;3.63;3.33;;;19.70;72.80;;;;;;6102010;23;20159;-83
2022/09/14 04:20:15;;;;;;;3.92;3.63;;;19.70;72.80;;;;;;6079023;23;20211;-83
2022/09/14 04:26:45;;;;;;;3.50;3.20;;;19.80;72.80;;;;;;6152116;23;20194;-84
2022/09/14 04:43:34;;;;;;;3.80;3.50;;;19.70;72.90;;;;;;6182664;23;20155;-82
2022/09/14 04:53:23;;;;;;;3.28;2.97;;;19.70;71.70;;;;;;6097023;23;20152;-83
2022/09/14 04:56:19;;;;;;;3.08;2.78;;;19.70;71.40;;;;;;6051083;23;20164;-83
2022/09/14 04:59:14;;;;;;;3.33;3.00;;;19.70;71.90;;;;;;6052183;23;20145;-84
2022/09/14 05:02:11;;;;;;;3.60;3.00;;;19.70;71.50;;;;;;6050537;23;20222;-84
2022/09/14 05:05:02;;;;;;;3.40;3.10;;;19.70;70.90;;;;;;6016876;23;20217;-83
2022/09/14 05:16:23;;;;;;;2.30;2.10;;;19.70;70.50;;;;;;6183121;23;20182;-83
2022/09/14 05:19:00;;;;;;;2.17;1.90;;;19.70;70.20;;;;;;6112276;23;20227;-84
2022/09/14 05:24:55;;;;;;;2.38;2.17;;;19.60;69.60;;;;;;6181551;23;20219;-84
2022/09/14 05:28:15;;;;;;;1.90;1.80;;;19.70;69.60;;;;;;6155632;23;20151;-83
2022/09/14 06:41:31;;;;;;;1.30;1.20;;;19.60;67.00;;;;;;6092912;23;20446;-82
2022/09/14 06:57:18;;;;;;;1.45;1.30;;;19.70;66.40;;;;;;6122777;23;20196;-82
2022/09/14 07:10:26;;;;;;;1.40;1.30;;;19.70;66.40;;;;;;6153763;23;20550;-81
2022/09/14 07:13:10;;;;;;;1.50;1.40;;;19.70;66.50;;;;;;6063292;23;20137;-81
2022/09/14 07:15:56;;;;;;;1.35;1.25;;;19.70;66.70;;;;;;6048490;23;20149;-81
2022/09/14 07:18:48;;;;;;;1.23;1.13;;;19.70;66.70;;;;;;6021748;23;20153;-81
2022/09/14 07:21:55;;;;;;;;;;;;;;;;;;;;;
2022/09/14 07:24:42;;;;;;;1.45;1.30;;;19.70;66.70;;;;;;6013650;23;20174;-81
2022/09/14 07:29:49;;;;;;;1.42;1.33;;;19.70;66.60;;;;;;6047233;23;20234;-80
2022/09/14 07:33:05;;;;;;;1.52;1.42;;;19.70;66.70;;;;;;6063825;23;20193;-82
2022/09/14 07:53:42;;;;;;;1.27;1.10;;;19.70;66.10;;;;;;6134784;23;20271;-84
2022/09/14 08:03:30;;;;;;;1.23;1.13;;;19.70;65.60;;;;;;6178340;23;20146;-84
2022/09/14 08:06:33;;;;;;;1.30;1.20;;;19.70;65.40;;;;;;6128083;23;20187;-83
2022/09/14 08:09:10;;;;;;;1.33;1.23;;;19.70;65.20;;;;;;6129081;23;20187;-84
2022/09/14 08:11:49;;;;;;;1.30;1.20;;;19.70;64.80;;;;;;6046152;23;20152;-84
2022/09/14 08:14:46;;;;;;;1.20;1.10;;;19.70;65.10;;;;;;6045198;23;20160;-83
2022/09/14 08:17:22;;;;;;;1.20;1.10;;;19.70;64.90;;;;;;6065263;23;20180;-84
2022/09/14 08:20:01;;;;;;;1.17;1.08;;;19.70;65.00;;;;;;6043943;23;20473;-84
2022/09/14 08:22:30;;;;;;;1.20;1.10;;;19.70;64.90;;;;;;5987206;23;20274;-84
2022/09/14 08:28:49;;;;;;;1.00;1.00;;;19.70;64.90;;;;;;6034033;23;20191;-82
2022/09/14 08:34:58;;;;;;;0.90;0.90;;;19.70;64.40;;;;;;6030812;23;20184;-83
2022/09/14 08:37:58;;;;;;;1.52;1.10;;;19.70;64.30;;;;;;5974315;24;20171;-83
2022/09/14 08:40:57;;;;;;;0.90;0.90;;;19.70;64.30;;;;;;5931131;24;20174;-83
2022/09/14 08:43:24;;;;;;;1.10;1.00;;;19.70;64.40;;;;;;5974782;24;20163;-84
2022/09/14 08:46:02;;;;;;;0.90;0.90;;;19.70;64.20;;;;;;5923476;23;20215;-83
2022/09/14 08:48:59;;;;;;;1.63;1.00;;;19.70;64.30;;;;;;5968484;23;20152;-84
2022/09/14 08:51:59;;;;;;;1.00;1.00;;;19.70;64.20;;;;;;6062584;23;20721;-84
2022/09/14 08:54:36;;;;;;;0.93;0.80;;;19.70;64.10;;;;;;5968527;24;20624;-84
2022/09/14 08:57:40;;;;;;;1.30;0.90;;;19.70;64.00;;;;;;5948376;24;20164;-84
2022/09/14 09:00:24;;;;;;;1.00;1.00;;;19.70;63.80;;;;;;5935035;24;20159;-83
2022/09/14 09:23:48;;;;;;;0.95;0.95;;;19.70;64.30;;;;;;6178216;23;20305;-83
2022/09/14 09:37:02;;;;;;;1.10;1.00;;;19.70;64.50;;;;;;6104874;23;20229;-84
2022/09/14 09:39:50;;;;;;;1.10;1.00;;;19.70;64.40;;;;;;6107089;23;20206;-84
2022/09/14 09:47:39;;;;;;;0.95;0.93;;;19.70;64.30;;;;;;6136472;23;20232;-84
2022/09/14 09:50:32;;;;;;;1.02;1.00;;;19.80;64.40;;;;;;6181864;23;20130;-82
2022/09/14 09:53:07;;;;;;;1.00;1.00;;;19.80;64.40;;;;;;6206447;23;20192;-82
2022/09/14 09:55:40;;;;;;;1.17;1.08;;;19.80;64.30;;;;;;6103740;23;20160;-83
2022/09/14 10:01:19;;;;;;;1.75;0.90;;;19.80;64.10;;;;;;6171903;23;20190;-83
2022/09/14 10:04:20;;;;;;;0.98;0.90;;;19.80;64.20;;;;;;6174250;23;20233;-84
2022/09/14 10:06:50;;;;;;;0.95;0.90;;;19.70;64.00;;;;;;6123770;23;20346;-82
2022/09/14 10:09:19;;;;;;;0.80;0.80;;;19.80;64.00;;;;;;6129009;23;20139;-83
2022/09/14 10:12:14;;;;;;;0.88;0.88;;;19.80;63.90;;;;;;6030276;23;20167;-82
2022/09/14 10:14:48;;;;;;;0.90;0.90;;;19.80;64.00;;;;;;6089334;23;20175;-84
2022/09/14 10:28:25;;;;;;;1.15;1.05;;;19.80;64.10;;;;;;6112759;23;20206;-83
2022/09/14 10:31:50;;;;;;;1.23;1.13;;;19.80;64.30;;;;;;6063217;23;20200;-83
2022/09/14 10:35:03;;;;;;;1.10;1.00;;;19.80;64.40;;;;;;6137133;23;20186;-84
2022/09/14 12:56:01;;;;;;;0.90;0.90;;;19.90;63.20;;;;;;6155074;23;20192;-84
2022/09/14 12:58:58;;;;;;;3.72;1.00;;;19.90;63.10;;;;;;6099293;23;20152;-84
2022/09/14 13:02:02;;;;;;;1.20;1.20;;;19.90;62.90;;;;;;6086166;23;20184;-86
2022/09/14 13:04:31;;;;;;;1.20;1.10;;;20.00;63.90;;;;;;6037544;23;20207;-83
2022/09/14 13:12:09;;;;;;;2.90;1.13;;;20.00;63.10;;;;;;6057759;23;20431;-83
2022/09/14 13:15:24;;;;;;;2.45;1.05;;;20.00;63.20;;;;;;6037066;23;20167;-83
2022/09/14 13:18:22;;;;;;;3.90;1.27;;;20.00;63.30;;;;;;6014993;23;20155;-83
2022/09/14 13:21:25;;;;;;;3.30;1.27;;;20.00;63.40;;;;;;5980634;24;20163;-83
2022/09/14 13:23:54;;;;;;;2.22;1.40;;;20.00;63.40;;;;;;6002779;23;20210;-83
2022/09/14 13:26:29;;;;;;;3.45;1.10;;;20.00;63.60;;;;;;6128992;23;20213;-83
2022/09/14 13:29:14;;;;;;;1.60;1.40;;;20.00;63.60;;;;;;6094916;23;20171;-83
2022/09/14 13:32:18;;;;;;;3.63;1.30;;;19.90;63.60;;;;;;6048247;23;20157;-85
2022/09/14 13:34:59;;;;;;;1.23;1.13;;;20.00;63.60;;;;;;5984633;23;20263;-83
2022/09/14 13:37:25;;;;;;;3.63;1.23;;;19.90;63.80;;;;;;5982519;24;20649;-83
2022/09/14 13:40:04;;;;;;;1.23;1.00;;;19.90;64.00;;;;;;5978194;24;20159;-83
2022/09/14 14:01:02;;;;;;;2.10;1.00;;;19.90;65.10;;;;;;6115492;23;20205;-84
2022/09/14 14:12:11;;;;;;;2.50;1.17;;;20.00;65.10;;;;;;6164071;23;20210;-85
2022/09/14 14:15:24;;;;;;;1.00;1.00;;;19.90;65.00;;;;;;6132842;23;20190;-84
2022/09/14 14:18:13;;;;;;;1.10;1.10;;;20.00;65.10;;;;;;6136152;23;20211;-84
2022/09/14 14:21:07;;;;;;;1.42;1.20;;;20.00;65.10;;;;;;6180221;23;20159;-84
2022/09/14 14:52:18;;;;;;;1.00;1.00;;;19.90;65.10;;;;;;6098479;23;20650;-83
2022/09/14 14:54:52;;;;;;;1.02;1.02;;;19.90;65.10;;;;;;6100801;23;20147;-83
2022/09/14 14:57:18;;;;;;;1.92;1.02;;;20.00;65.10;;;;;;6125260;23;20146;-83
2022/09/14 14:59:45;;;;;;;2.55;1.00;;;20.00;65.10;;;;;;6126966;23;20156;-83
2022/09/14 15:02:18;;;;;;;1.30;1.10;;;19.90;65.10;;;;;;6124185;23;20140;-83
2022/09/14 15:04:47;;;;;;;1.35;1.25;;;20.00;65.10;;;;;;6073263;23;20281;-83
2022/09/14 15:07:13;;;;;;;0.90;0.90;;;19.90;65.10;;;;;;6122355;23;20132;-83
2022/09/14 15:09:38;;;;;;;1.20;1.10;;;20.00;65.10;;;;;;6096323;23;20150;-83
2022/09/14 15:12:10;;;;;;;1.10;1.00;;;20.00;65.10;;;;;;6096891;23;20194;-83
2022/09/14 15:14:40;;;;;;;1.60;1.10;;;20.00;65.20;;;;;;6095328;23;20560;-83
2022/09/14 15:17:06;;;;;;;2.67;1.30;;;20.00;65.10;;;;;;6097255;23;20148;-83
2022/09/14 15:19:42;;;;;;;1.48;1.20;;;20.00;65.10;;;;;;6120546;23;20238;-82
2022/09/14 15:22:13;;;;;;;1.20;1.10;;;19.90;65.00;;;;;;6097941;23;20182;-83
2022/09/14 15:24:39;;;;;;;0.93;0.93;;;20.00;64.90;;;;;;6150701;23;20179;-82
2022/09/14 15:27:06;;;;;;;1.00;1.00;;;19.90;64.60;;;;;;6126698;23;20155;-83
2022/09/14 15:29:52;;;;;;;2.00;1.00;;;20.00;64.70;;;;;;6175340;23;20614;-83
2022/09/14 15:32:22;;;;;;;1.10;1.10;;;20.00;64.50;;;;;;6078793;23;20155;-83
2022/09/14 15:34:52;;;;;;;1.17;1.05;;;20.00;64.50;;;;;;6099844;23;20167;-83
2022/09/14 15:37:21;;;;;;;2.00;1.08;;;20.00;64.50;;;;;;6101231;23;20233;-83
2022/09/14 15:39:50;;;;;;;1.38;1.27;;;20.00;64.20;;;;;;6124123;23;20154;-83
2022/09/14 15:42:21;;;;;;;0.90;0.90;;;20.00;64.20;;;;;;6099766;23;20364;-83
2022/09/14 15:44:54;;;;;;;0.90;0.90;;;20.00;64.10;;;;;;6125187;23;20311;-82
2022/09/14 15:47:24;;;;;;;0.90;0.90;;;20.00;64.10;;;;;;6079155;23;20158;-83
2022/09/14 15:49:53;;;;;;;1.20;1.10;;;20.00;64.10;;;;;;6118713;23;20160;-82
2022/09/14 15:52:37;;;;;;;1.83;1.20;;;20.00;64.20;;;;;;6094410;23;20234;-85
2022/09/14 16:01:55;;;;;;;1.20;0.90;;;20.00;64.10;;;;;;6138819;23;20148;-84
2022/09/14 16:04:26;;;;;;;1.77;1.10;;;20.00;63.80;;;;;;6062336;23;20156;-84
2022/09/14 16:06:54;;;;;;;1.02;0.93;;;20.00;63.90;;;;;;6058727;23;20497;-83
2022/09/14 16:09:22;;;;;;;1.20;0.90;;;20.00;63.70;;;;;;6056159;23;20627;-84
2022/09/14 16:11:52;;;;;;;1.08;0.98;;;20.10;63.90;;;;;;6078956;23;20200;-83
2022/09/14 16:14:24;;;;;;;1.85;0.90;;;20.10;63.70;;;;;;6109783;23;20156;-84
2022/09/14 16:16:58;;;;;;;1.20;1.10;;;20.00;63.60;;;;;;6056279;23;20156;-82
2022/09/14 16:19:26;;;;;;;1.25;1.02;;;20.00;63.80;;;;;;6055937;23;20163;-83
2022/09/14 16:21:57;;;;;;;0.93;0.93;;;20.10;64.10;;;;;;6083233;23;20156;-83
2022/09/14 16:24:28;;;;;;;0.88;0.80;;;20.00;64.00;;;;;;6062402;23;20151;-83
2022/09/14 16:27:27;;;;;;;;;;;;;;;;;;;;;
2022/09/14 16:30:10;;;;;;;0.80;0.80;;;20.10;63.70;;;;;;6061660;23;20157;-84
2022/09/14 16:32:46;;;;;;;1.20;1.05;;;20.00;63.60;;;;;;6000714;23;20316;-84
2022/09/14 16:35:21;;;;;;;1.92;1.00;;;20.00;63.80;;;;;;6001750;23;20193;-85
2022/09/14 16:37:50;;;;;;;1.38;0.98;;;20.00;63.80;;;;;;6005423;23;20236;-84
2022/09/14 16:40:20;;;;;;;1.10;0.95;;;20.00;63.80;;;;;;6002331;23;20169;-83
2022/09/14 16:42:52;;;;;;;1.30;1.05;;;20.10;64.00;;;;;;6005028;23;20162;-82
2022/09/14 16:46:11;;;;;;;;;;;;;;;;;;;;;
2022/09/14 16:48:57;;;;;;;1.63;0.80;;;20.00;63.70;;;;;;6117022;22;20207;-86
2022/09/14 16:52:02;;;;;;;;;;;;;;;;;;;;;
2022/09/14 16:54:42;;;;;;;3.45;0.88;;;20.10;63.70;;;;;;5980844;23;20203;-83
2022/09/14 16:57:20;;;;;;;1.58;0.80;;;20.00;63.70;;;;;;5981209;23;20239;-85
2022/09/14 17:00:15;;;;;;;0.98;0.98;;;20.10;63.70;;;;;;5979994;23;20162;-86
2022/09/14 17:03:18;;;;;;;0.95;0.95;;;20.10;63.90;;;;;;6000656;24;20154;-85
2022/09/14 17:21:48;;;;;;;0.80;0.80;;;20.10;63.80;;;;;;6160520;23;20203;-83
2022/09/14 17:24:25;;;;;;;1.42;0.90;;;20.00;63.80;;;;;;6056133;23;20156;-83
2022/09/14 17:27:09;;;;;;;;;;;;;;;;;;;;;
2022/09/14 17:29:42;;;;;;;1.15;0.90;;;20.00;63.90;;;;;;6079371;23;20242;-84
2022/09/14 17:32:12;;;;;;;1.98;0.98;;;20.10;64.00;;;;;;6022234;23;20181;-85
2022/09/14 17:35:03;;;;;;;2.47;1.10;;;20.10;64.00;;;;;;6047856;23;20165;-85
2022/09/14 17:37:32;;;;;;;0.90;0.90;;;20.10;64.00;;;;;;6047778;23;20228;-85
2022/09/14 17:40:05;;;;;;;1.20;0.80;;;20.00;63.80;;;;;;6076734;23;20157;-85
2022/09/14 17:42:33;;;;;;;1.30;0.80;;;20.10;63.80;;;;;;6050528;23;20157;-84
2022/09/14 17:45:05;;;;;;;0.80;0.77;;;20.10;63.80;;;;;;6045129;23;20223;-84
2022/09/14 17:47:52;;;;;;;1.00;1.00;;;20.10;63.70;;;;;;6026244;23;20166;-83
2022/09/14 17:54:30;;;;;;;0.93;0.90;;;20.10;63.60;;;;;;5958590;24;20171;-83
2022/09/14 17:57:36;;;;;;;1.50;0.70;;;20.10;63.60;;;;;;6021105;23;20163;-82
2022/09/14 18:01:16;;;;;;;0.73;0.70;;;20.10;63.60;;;;;;5937159;24;20250;-86
2022/09/14 18:04:16;;;;;;;1.23;0.80;;;20.10;63.60;;;;;;5830882;24;20674;-85
2022/09/14 18:11:00;;;;;;;3.90;1.02;;;20.10;63.80;;;;;;5707336;25;20167;-83
2022/09/14 18:14:06;;;;;;;;;;;;;;;;;;;;;
2022/09/14 18:30:57;;;;;;;;;;;;;;;;;;;;;
2022/09/14 18:34:07;;;;;;;0.93;0.77;;;20.10;63.90;;;;;;5694381;25;20197;-84
2022/09/14 18:36:41;;;;;;;1.88;0.60;;;20.10;63.80;;;;;;5713864;25;20170;-85
2022/09/14 18:39:25;;;;;;;0.80;0.68;;;20.10;63.80;;;;;;5694459;25;20222;-85
2022/09/14 18:41:57;;;;;;;2.55;0.80;;;20.10;63.80;;;;;;5674605;25;20325;-84
2022/09/14 18:44:28;;;;;;;1.73;0.82;;;20.10;63.80;;;;;;5725231;25;20484;-85
2022/09/14 18:47:07;;;;;;;1.38;1.02;;;20.10;63.80;;;;;;5743551;24;20199;-85
2022/09/14 18:50:01;;;;;;;2.28;0.60;;;20.10;63.80;;;;;;5781571;24;20175;-84
2022/09/14 18:52:50;;;;;;;0.90;0.70;;;20.10;63.80;;;;;;5757535;24;20167;-85
2022/09/14 18:55:32;;;;;;;2.50;0.82;;;20.10;63.80;;;;;;5748948;24;20164;-85
2022/09/14 18:58:09;;;;;;;1.55;0.90;;;20.10;63.70;;;;;;5844420;24;20661;-85
2022/09/14 19:01:15;;;;;;;0.60;0.60;;;20.10;63.70;;;;;;5859720;24;20211;-85
2022/09/14 19:03:47;;;;;;;0.70;0.63;;;20.10;63.60;;;;;;5850843;24;20581;-83
2022/09/14 19:06:18;;;;;;;1.75;1.00;;;20.10;63.60;;;;;;5838707;24;20670;-85
2022/09/14 19:08:46;;;;;;;0.77;0.55;;;20.10;63.60;;;;;;5903258;24;20161;-83
2022/09/14 19:11:21;;;;;;;0.60;0.60;;;20.10;63.60;;;;;;5938409;24;20159;-86
2022/09/14 19:14:06;;;;;;;0.70;0.60;;;20.10;63.50;;;;;;5932882;24;20237;-85
2022/09/14 19:16:33;;;;;;;0.60;0.60;;;20.10;63.30;;;;;;5984140;24;20266;-85
2022/09/14 19:19:00;;;;;;;2.33;0.60;;;20.10;63.30;;;;;;5940645;24;20259;-85
2022/09/14 19:21:41;;;;;;;1.85;0.68;;;20.10;63.20;;;;;;5963032;24;20213;-86
2022/09/14 19:24:45;;;;;;;0.68;0.50;;;20.10;63.10;;;;;;5986674;23;20227;-84
2022/09/14 19:27:18;;;;;;;1.02;0.60;;;20.10;63.00;;;;;;5943975;24;20201;-85
2022/09/14 19:29:51;;;;;;;1.17;0.63;;;20.10;62.90;;;;;;5958991;24;20168;-85
2022/09/14 19:32:26;;;;;;;2.45;0.73;;;20.10;62.80;;;;;;5937960;24;20171;-86
2022/09/14 19:34:54;;;;;;;2.40;0.65;;;20.10;62.90;;;;;;5937240;24;20166;-86
2022/09/14 19:37:24;;;;;;;1.23;0.70;;;20.10;62.80;;;;;;5997934;23;20207;-83
2022/09/14 19:39:55;;;;;;;0.63;0.63;;;20.00;62.70;;;;;;5965206;24;20163;-85
2022/09/14 19:42:26;;;;;;;1.48;0.57;;;20.00;62.70;;;;;;6025085;23;20185;-86
2022/09/14 19:45:11;;;;;;;1.63;0.63;;;20.00;62.60;;;;;;6016656;23;20219;-86
2022/09/14 19:47:38;;;;;;;0.60;0.57;;;20.00;62.60;;;;;;6032387;23;20188;-83
2022/09/14 19:50:09;;;;;;;2.75;0.70;;;20.00;62.60;;;;;;6030065;23;20169;-85
2022/09/14 19:52:46;;;;;;;0.60;0.60;;;20.00;62.50;;;;;;6029789;23;20207;-84
2022/09/14 19:55:17;;;;;;;1.67;0.50;;;20.00;62.40;;;;;;6031038;23;20195;-85
2022/09/14 19:57:44;;;;;;;0.60;0.60;;;20.10;62.50;;;;;;6035753;23;20168;-87
2022/09/14 20:00:13;;;;;;;0.60;0.60;;;20.10;62.40;;;;;;6076301;23;20591;-86
2022/09/14 20:02:40;;;;;;;0.70;0.70;;;20.00;62.40;;;;;;6088592;23;20595;-86
2022/09/14 20:05:11;;;;;;;0.55;0.55;;;20.00;62.40;;;;;;6160252;23;20662;-85
2022/09/14 20:07:46;;;;;;;1.75;0.50;;;20.00;62.40;;;;;;6088162;23;20159;-83
2022/09/14 20:10:25;;;;;;;1.10;0.60;;;20.00;62.30;;;;;;6110758;23;20487;-85
2022/09/14 20:12:55;;;;;;;1.63;0.80;;;20.00;62.30;;;;;;6086340;23;20159;-84
2022/09/14 20:15:22;;;;;;;0.52;0.52;;;20.00;62.10;;;;;;6085200;23;20173;-83
2022/09/14 20:17:56;;;;;;;0.80;0.40;;;20.00;62.10;;;;;;6084918;23;20163;-86
2022/09/14 20:20:27;;;;;;;0.60;0.50;;;20.00;62.10;;;;;;6085281;23;20630;-87
2022/09/14 20:23:08;;;;;;;0.82;0.60;;;20.00;62.00;;;;;;6128653;23;20179;-85
2022/09/14 20:25:38;;;;;;;2.28;0.45;;;20.00;61.90;;;;;;6046554;23;20189;-86
2022/09/14 20:28:15;;;;;;;0.80;0.60;;;20.00;61.90;;;;;;5975961;23;20165;-84
2022/09/14 20:31:02;;;;;;;0.40;0.40;;;20.00;61.90;;;;;;5942953;23;20162;-85
2022/09/14 20:33:34;;;;;;;0.98;0.50;;;20.00;61.80;;;;;;6011733;23;20163;-84
2022/09/14 20:36:28;;;;;;;0.52;0.52;;;20.00;61.80;;;;;;6029067;23;20166;-87
2022/09/14 20:39:29;;;;;;;0.40;0.40;;;20.00;61.70;;;;;;6003013;24;20174;-86
2022/09/14 20:42:05;;;;;;;0.95;0.50;;;20.00;61.50;;;;;;5946752;24;20164;-87
2022/09/14 20:44:35;;;;;;;0.50;0.50;;;20.00;61.50;;;;;;5947398;24;20188;-87
2022/09/14 20:47:08;;;;;;;0.70;0.70;;;20.00;61.70;;;;;;5910710;24;20164;-86
2022/09/14 20:49:58;;;;;;;0.70;0.70;;;20.00;62.70;;;;;;5927880;24;20160;-87
2022/09/14 20:52:28;;;;;;;1.00;0.90;;;20.00;62.90;;;;;;5930538;24;20160;-87
2022/09/14 20:55:12;;;;;;;0.80;0.80;;;19.90;62.80;;;;;;5952391;24;20156;-86
2022/09/14 20:57:41;;;;;;;2.15;0.70;;;19.90;63.70;;;;;;5929347;24;20239;-87
2022/09/14 21:00:35;;;;;;;1.55;1.00;;;19.90;63.00;;;;;;5952157;24;20156;-85
2022/09/14 21:03:14;;;;;;;0.88;0.75;;;20.00;63.10;;;;;;5969411;23;20216;-87
2022/09/14 21:06:03;;;;;;;0.80;0.80;;;19.90;63.30;;;;;;5943426;23;20189;-87
2022/09/14 21:08:34;;;;;;;0.70;0.70;;;20.00;63.50;;;;;;5977242;24;20167;-85
2022/09/14 21:11:11;;;;;;;1.33;0.90;;;20.00;63.60;;;;;;5976888;24;20159;-86
2022/09/14 21:13:54;;;;;;;1.23;1.00;;;19.90;63.60;;;;;;6043823;23;20249;-86
2022/09/14 21:16:31;;;;;;;1.10;1.00;;;20.00;63.70;;;;;;6012205;23;20161;-85
2022/09/14 21:19:09;;;;;;;1.20;1.10;;;19.90;63.70;;;;;;6037954;23;20161;-86
2022/09/14 21:21:51;;;;;;;0.80;0.80;;;19.90;63.70;;;;;;5976729;24;20232;-85
2022/09/14 21:24:40;;;;;;;0.73;0.73;;;19.90;63.80;;;;;;5932708;24;20166;-85
2022/09/14 21:27:09;;;;;;;1.35;1.05;;;19.90;63.80;;;;;;5955226;24;20207;-85
2022/09/14 21:29:41;;;;;;;2.25;1.02;;;19.90;63.80;;;;;;5977871;24;20184;-84
2022/09/14 21:32:08;;;;;;;1.13;0.80;;;19.90;63.70;;;;;;5931300;24;20159;-86
2022/09/14 21:34:39;;;;;;;2.05;1.10;;;19.90;64.50;;;;;;5931689;24;20159;-84
2022/09/14 21:37:43;;;;;;;1.13;0.90;;;19.90;63.70;;;;;;5931412;24;20203;-85
2022/09/14 21:40:26;;;;;;;1.58;0.98;;;19.90;63.70;;;;;;5977595;24;20631;-84
2022/09/14 21:43:23;;;;;;;0.90;0.90;;;19.90;63.70;;;;;;5934186;24;20190;-86
2022/09/14 21:45:57;;;;;;;2.78;0.90;;;19.90;63.70;;;;;;5951218;23;20253;-84
2022/09/14 21:48:37;;;;;;;1.50;0.90;;;19.90;63.70;;;;;;5982931;23;20190;-85
2022/09/14 21:51:18;;;;;;;0.88;0.88;;;19.90;63.60;;;;;;5954548;24;20166;-84
2022/09/14 21:53:56;;;;;;;3.05;0.90;;;19.90;63.60;;;;;;5978234;24;20159;-85
2022/09/14 21:56:35;;;;;;;0.80;0.80;;;19.90;63.40;;;;;;5949480;24;20241;-85
2022/09/14 21:59:14;;;;;;;0.93;0.90;;;19.90;63.40;;;;;;5949528;24;20171;-85
2022/09/14 22:01:47;;;;;;;0.90;0.90;;;19.90;63.40;;;;;;5965919;24;20160;-85
2022/09/14 22:04:24;;;;;;;2.33;0.90;;;19.90;63.30;;;;;;5968371;24;20206;-85
2022/09/14 22:06:56;;;;;;;1.23;1.00;;;19.80;63.20;;;;;;5932660;24;20196;-85
2022/09/14 22:09:42;;;;;;;0.90;0.90;;;19.90;63.20;;;;;;5939638;24;20167;-85
2022/09/14 22:12:29;;;;;;;1.10;1.00;;;19.80;63.10;;;;;;5897489;24;20167;-85
2022/09/14 22:15:00;;;;;;;1.90;0.90;;;19.80;63.00;;;;;;5899111;24;20498;-85
2022/09/14 22:17:34;;;;;;;1.05;0.98;;;19.90;63.00;;;;;;5891395;24;20168;-84
2022/09/14 22:20:09;;;;;;;0.93;0.80;;;19.80;63.10;;;;;;5913259;24;20256;-85
2022/09/14 22:22:52;;;;;;;2.80;1.08;;;19.90;63.00;;;;;;5919615;24;20205;-85
2022/09/14 22:25:23;;;;;;;1.30;0.93;;;19.80;63.20;;;;;;5897233;24;20319;-85
2022/09/14 22:27:51;;;;;;;2.35;0.98;;;19.90;63.40;;;;;;5940105;24;20225;-84
2022/09/14 22:30:18;;;;;;;1.90;1.05;;;19.80;63.50;;;;;;5918278;24;20168;-84
2022/09/14 22:32:52;;;;;;;1.17;1.00;;;19.90;63.70;;;;;;5941161;24;20156;-85
2022/09/14 22:35:22;;;;;;;1.33;0.90;;;19.80;63.70;;;;;;5964320;24;20164;-84
2022/09/14 22:41:00;;;;;;;0.80;0.80;;;19.80;63.80;;;;;;5860290;24;20171;-85
2022/09/14 22:43:36;;;;;;;2.40;1.10;;;19.80;63.80;;;;;;5842790;24;20165;-85
2022/09/14 22:46:18;;;;;;;1.33;1.02;;;19.80;63.80;;;;;;5858497;24;20200;-85
2022/09/14 22:48:52;;;;;;;1.08;0.90;;;19.90;64.00;;;;;;5814537;24;20666;-86
2022/09/14 22:51:27;;;;;;;1.60;0.90;;;19.80;64.00;;;;;;5837714;24;20161;-85
2022/09/14 22:53:59;;;;;;;0.90;0.90;;;19.80;63.90;;;;;;5889629;24;20263;-85
2022/09/14 22:56:32;;;;;;;1.25;1.15;;;19.80;63.90;;;;;;5913691;24;20165;-85
2022/09/14 22:59:07;;;;;;;1.00;0.90;;;19.80;63.90;;;;;;5867534;24;20194;-85
2022/09/14 23:01:40;;;;;;;2.10;1.15;;;19.80;64.00;;;;;;5891217;24;20171;-85
2022/09/14 23:04:18;;;;;;;1.23;1.00;;;19.80;63.90;;;;;;5867885;24;20172;-86
2022/09/14 23:06:47;;;;;;;2.35;1.02;;;19.80;63.90;;;;;;5856489;24;20231;-85
2022/09/14 23:09:27;;;;;;;1.08;0.98;;;19.80;63.90;;;;;;5910180;24;20633;-85
2022/09/14 23:12:16;;;;;;;1.10;0.90;;;19.80;63.90;;;;;;5885719;24;20223;-85
2022/09/14 23:15:20;;;;;;;1.20;0.90;;;19.80;63.90;;;;;;5843208;24;20158;-85
2022/09/14 23:17:59;;;;;;;0.90;0.90;;;19.80;63.90;;;;;;5973785;23;20190;-85
2022/09/14 23:20:25;;;;;;;1.10;1.00;;;19.80;63.90;;;;;;6039803;23;20198;-85
2022/09/14 23:23:05;;;;;;;0.90;0.90;;;19.80;63.80;;;;;;6035534;23;20177;-85
2022/09/14 23:25:40;;;;;;;0.95;0.95;;;19.80;63.80;;;;;;5996745;23;20190;-86
2022/09/14 23:28:18;;;;;;;1.13;1.02;;;19.80;63.80;;;;;;5985211;23;20158;-85
2022/09/14 23:31:20;;;;;;;1.85;0.90;;;19.80;63.80;;;;;;5984910;23;20154;-85
2022/09/14 23:33:51;;;;;;;1.25;1.00;;;19.80;63.80;;;;;;5970571;24;20731;-85
2022/09/14 23:36:33;;;;;;;1.20;1.10;;;19.80;63.80;;;;;;5941885;24;20168;-86
2022/09/14 23:39:21;;;;;;;1.50;1.02;;;19.80;63.80;;;;;;5898932;24;20251;-85
2022/09/14 23:41:47;;;;;;;1.20;1.10;;;19.80;63.80;;;;;;5938157;24;20185;-85
2022/09/14 23:44:20;;;;;;;1.48;0.90;;;19.80;63.80;;;;;;5938627;24;20210;-85
2022/09/14 23:46:48;;;;;;;1.27;1.05;;;19.80;63.80;;;;;;5916376;24;20280;-85
2022/09/14 23:49:22;;;;;;;1.20;1.05;;;19.80;63.80;;;;;;5914104;24;20168;-85
2022/09/14 23:52:22;;;;;;;1.23;1.13;;;19.70;63.80;;;;;;5938536;24;20248;-85
2022/09/14 23:54:50;;;;;;;1.10;1.00;;;19.70;63.80;;;;;;5991708;24;20211;-84
2022/09/14 23:57:26;;;;;;;1.30;1.17;;;19.70;63.90;;;;;;5950606;24;20235;-85
2022/09/14 23:59:57;;;;;;;1.10;1.00;;;19.70;63.90;;;;;;5951715;24;20155;-85
